EB1GEM-3
43.30.00N 005.36.07W
IN73EM aprs.fi
zuletzt gehoert:
2022-07-05T15:53:53Z
zuerst gehoert:
2020-12-07T14:22:19Z

APRS Gijón/Xixón [IN73EM], 2 Stunde(n), EB1GEM-3 [18:07:46, 0s].
EB1GEM 43.30.00N 005.36.07WIN73EM 0.042km 296°WNW15:53:53ZWX3in1Plus2.0 U=13.3V,T=??.?C/??.?F(3EB1GEM-3)
EA4ACU 43.29.56N 005.38.92WIN73EL 3.963km 258°WSW16:02:03ZMMDVM MMDVM HS Hat 432.7000/432.7000 CC1(3EA4ACU-1)
EA1DZR 43.31.47N 005.40.00WIN73DM 5.988km 297°WNW16:02:04ZMMDVM DV ADER 434.3500/434.3500 CC1(3EA1DZR-4)
MMDVM DVMega 431.1000/431.1000 CC1(2EA1DZR-1)
MMDVM MMDVM HS Hat 432.1000/432.1000 CC2(2EA1DZR-2)
EA1IEJ 43.31.83N 005.40.22WIN73DM 6.570km 301°WNW16:02:05ZMMDVM DMO 222.3400/222.3400 CC1(3EA1IEJ-11)
ED1ZAE 43.27.99N 005.40.54WIN73DL 7.114km 238°WSW16:01:16ZWIDE3-3 ESAS3-3 IN73DL WWW.EA1URG.ORG(3ED1ZAE-3)
ED1ZAS 43.27.52N 005.40.17WIN73DL 7.204km 231°SW16:02:26ZRD985 438.2250/430.6250 CC1
EB1TK 43.32.22N 005.42.32WIN73DM 9.393km 296°WNW16:00:18ZWind 047°/016kn, Böen bis 020kn, Temp 18.89c, Regen 0.0mm, letzte 24h 1.0mm, seit 0h 1.0mm, Baro 1027.2h, Hum: 89%(3EB1TK-13)
LEEL 43.32.98N 005.41.71WIN73DN 9.417km 306°NW16:00:05ZHelipuerto de El Musel: LEAS 051500Z 06010KT 020V100 9999 FEW012 SCT020 BKN027 19/17 Q1025 TEMPO BKN010=
EA1JW 43.31.35N 005.28.83WIN73GM 10.009km 75°ENE16:01:54ZMMDVM MMDVM HS Hat 436.5000/436.5000 CC1(3EA1JW-3)
EA1IPU 43.26.21N 005.46.62WIN73CK 15.856km 244°WSW16:00:56ZMMDVM MMDVM HS Hat 439.8000/439.8000 CC1(3EA1IPU-1)
KN6TUR 43.22.09N 005.42.22WIN73DI 16.834km 210°SSW15:40:04ZJulio Cesar
LEMR 43.25.83N 005.49.60WIN73CK 19.816km 247°WSW16:00:04ZAerodromo de la Morgal (123.500MHz): LEAS 051500Z 06010KT 020V100 9999 FEW012 SCT020 BKN027 19/17 Q1025 TEMPO BKN010=
LEGM 43.26.15N 005.49.84WIN73CK 19.873km 249°WSW16:00:04ZHelipuerto de La Morgal (123.500MHz): LEAS 051500Z 06010KT 020V100 9999 FEW012 SCT020 BKN027 19/17 Q1025 TEMPO BKN010=
LEHU 43.22.63N 005.49.57WIN73CJ 22.766km 233°SW16:00:04ZHelipuerto del HUCA: LEAS 051500Z 06010KT 020V100 9999 FEW012 SCT020 BKN027 19/17 Q1025 TEMPO BKN010=
EA1AHA 43.32.72N 005.54.38WIN73BN 25.153km 282°WNW16:02:27ZWind 090°/009kn, Böen bis 012kn, Temp 20.56c, Regen 0.0mm, letzte 24h 2.0mm, seit 0h 2.0mm, Baro 1025.9h, Hum: 76%(3EA1AHA-13)
33D00 43.21.63N 005.51.13WIN73BI 25.549km 233°SW16:01:42Z33-D-00 Protección Civil REMER / Delegación del Gobierno en Asturias
EA1JAY 43.21.54N 005.51.34WIN73BI 25.886km 233°SW15:30:05ZEA1JAY(3EA1JAY-2)
434.525MHz Nodo TETRA DMO(2EA1JAY-4)
ED1ZAU 43.23.04N 005.52.75WIN73BJ 25.927km 240°WSW16:02:32ZRD625 438.5000/430.9000 CC1
EA1BCU 43.32.88N 005.55.46WIN73AN 26.639km 282°WNW15:43:25ZAnt-QFH 144.800 MHz, Arduino-APRS/TLM(3EA1BCU-4)
EA1JBU 43.30.80N 005.16.20WIN73IM 26.694km 87°E16:00:05ZEA1JBU(3EA1JBU-2)
EA1HJA 43.21.47N 005.52.09WIN73BI 26.761km 234°SW16:02:43Z IN73FL WX3IN1+ 2.0 - V=13.2V,TX TEMP=36.5C(3EA1HJA-2)
IN73FL WX3IN1+ 2.0 - V=14.0V,TX TEMP=46.0C(2EA1HJA)
EA1JBE 43.30.90N 005.16.15WIN73IM 26.785km 86°E16:07:44ZMAIN QTH http://qrz.com/db/ea1jbe(3EA1JBE-1)
MAIN QTH http://qrz.com/db/ea1jbe(2EA1JBE-13)
EA1L 43.20.37N 005.51.13WIN73BI 27.020km 229°SW16:00:04Zea1l@ure.es V=13.4V
Wind 036°/003kn, Böen bis 012kn, Temp 19.44c, Regen 0.0mm, letzte 24h 0.0mm, seit 0h 0.0mm, Baro 1022.5h, Hum: 84%(2EA1L-13)
ED1ZAY 43.29.47N 005.56.54WIN73AL 27.583km 268°W16:02:30ZRD625 438.3000/430.7000 CC1
EA1HWX 43.19.28N 005.50.98WIN73BH 28.265km 225°SW16:02:13ZDMO - UHF 439.7250/431.0000 CC11(3EA1HWX-2)
MMDVM DMO 222.3400/222.3400 CC1(2EA1HWX-10)
EB1DGC 43.12.60N 005.45.59WIN73CF 34.718km 202°SSW16:01:04ZMMDVM MMDVM HS Hat 433.4500/433.4500 CC1
EA1HWA 43.12.00N 005.47.40WIN73CE 36.697km 205°SSW16:01:27ZMMDVM MMDVM HS Hat 433.4500/433.4500 CC1
ED1ZAD 43.07.90N 005.38.52WIN73ED 41.069km 185°S16:02:59ZED1ZAD-3 APRS Digi/Igate(3ED1ZAD-3)
EA1RCG 43.09.45N 005.49.78WIN73CD 42.331km 206°SSW16:00:50ZGRUPO RADIO GALENA (GRG) 430.4500/430.4500 CC1(3EA1RCG-3)
ED1ZBF 43.19.16N 005.06.74WIN73KH 44.243km 117°ESE16:02:27ZRD625 438.4750/430.8750 CC1

aprs.pl 5.0.011w DL3EL © 2006-2021 [3616327]